sensor_id;sensor_type;location;lat;lon;timestamp;pressure;altitude;pressure_sealevel;temperature;humidity
48035;BME280;33812;46.480;6.834;2023-07-08T00:03:29;93873.41;;;23.95;40.61
48035;BME280;33812;46.480;6.834;2023-07-08T00:07:31;93863.53;;;23.94;40.45
48035;BME280;33812;46.480;6.834;2023-07-08T00:11:33;93869.09;;;23.94;40.56
48035;BME280;33812;46.480;6.834;2023-07-08T00:15:37;93868.63;;;23.95;40.85
48035;BME280;33812;46.480;6.834;2023-07-08T00:19:40;93871.09;;;23.93;40.78
48035;BME280;33812;46.480;6.834;2023-07-08T00:23:43;93860.31;;;23.95;40.69
48035;BME280;33812;46.480;6.834;2023-07-08T00:27:45;93862.31;;;23.95;40.99
48035;BME280;33812;46.480;6.834;2023-07-08T00:31:49;93859.06;;;23.96;41.29
48035;BME280;33812;46.480;6.834;2023-07-08T00:35:52;93854.31;;;23.97;41.00
48035;BME280;33812;46.480;6.834;2023-07-08T00:39:53;93859.06;;;23.96;41.02
48035;BME280;33812;46.480;6.834;2023-07-08T00:43:56;93852.75;;;23.96;41.58
48035;BME280;33812;46.480;6.834;2023-07-08T00:48:06;93843.66;;;23.95;41.37
48035;BME280;33812;46.480;6.834;2023-07-08T00:52:23;93859.06;;;23.96;41.66
48035;BME280;33812;46.480;6.834;2023-07-08T00:56:29;93872.16;;;23.96;41.54
48035;BME280;33812;46.480;6.834;2023-07-08T01:00:31;93872.94;;;23.96;41.83
48035;BME280;33812;46.480;6.834;2023-07-08T01:04:38;93873.72;;;23.97;41.31
48035;BME280;33812;46.480;6.834;2023-07-08T02:30:26;93829.94;;;24.01;41.32
48035;BME280;33812;46.480;6.834;2023-07-08T02:34:28;93835.50;;;24.01;41.43
48035;BME280;33812;46.480;6.834;2023-07-08T02:38:30;93845.84;;;24.00;41.63
48035;BME280;33812;46.480;6.834;2023-07-08T02:42:31;93835.19;;;23.99;41.25
48035;BME280;33812;46.480;6.834;2023-07-08T02:46:35;93847.84;;;24.00;41.72
48035;BME280;33812;46.480;6.834;2023-07-08T02:50:36;93843.81;;;24.01;41.31
48035;BME280;33812;46.480;6.834;2023-07-08T02:54:38;93853.38;;;24.00;41.52
48035;BME280;33812;46.480;6.834;2023-07-08T02:58:40;93848.94;;;24.02;42.41
48035;BME280;33812;46.480;6.834;2023-07-08T03:02:43;93857.28;;;24.02;41.92
48035;BME280;33812;46.480;6.834;2023-07-08T03:06:45;93871.16;;;24.02;43.34
48035;BME280;33812;46.480;6.834;2023-07-08T03:10:47;93868.38;;;24.02;42.88
48035;BME280;33812;46.480;6.834;2023-07-08T03:14:49;93871.91;;;24.03;42.66
48035;BME280;33812;46.480;6.834;2023-07-08T03:18:52;93871.56;;;24.01;42.73
48035;BME280;33812;46.480;6.834;2023-07-08T03:22:54;93873.16;;;24.02;42.41
48035;BME280;33812;46.480;6.834;2023-07-08T03:26:56;93883.47;;;24.01;42.17
48035;BME280;33812;46.480;6.834;2023-07-08T03:30:59;93882.25;;;24.02;42.58
48035;BME280;33812;46.480;6.834;2023-07-08T03:35:03;93879.59;;;23.99;42.28
48035;BME280;33812;46.480;6.834;2023-07-08T03:39:05;93888.22;;;24.01;42.37
48035;BME280;33812;46.480;6.834;2023-07-08T03:43:07;93882.69;;;24.01;42.88
48035;BME280;33812;46.480;6.834;2023-07-08T03:47:08;93882.69;;;24.01;41.94
48035;BME280;33812;46.480;6.834;2023-07-08T03:51:17;93880.69;;;24.01;41.49
48035;BME280;33812;46.480;6.834;2023-07-08T03:55:22;93891.78;;;24.01;41.95
48035;BME280;33812;46.480;6.834;2023-07-08T03:59:23;93897.34;;;24.01;42.27
48035;BME280;33812;46.480;6.834;2023-07-08T04:03:25;93917.56;;;24.02;42.05
48035;BME280;33812;46.480;6.834;2023-07-08T04:07:28;93916.78;;;24.01;42.79
48035;BME280;33812;46.480;6.834;2023-07-08T04:11:30;93925.88;;;24.02;42.81
48035;BME280;33812;46.480;6.834;2023-07-08T04:15:32;93934.22;;;24.02;42.85
48035;BME280;33812;46.480;6.834;2023-07-08T04:19:34;93943.75;;;24.01;42.20
48035;BME280;33812;46.480;6.834;2023-07-08T04:23:37;93957.63;;;24.01;42.91
48035;BME280;33812;46.480;6.834;2023-07-08T04:27:39;93971.09;;;24.02;43.38
48035;BME280;33812;46.480;6.834;2023-07-08T04:31:41;93960.41;;;24.01;43.32
48035;BME280;33812;46.480;6.834;2023-07-08T04:35:44;93994.50;;;24.01;43.93
48035;BME280;33812;46.480;6.834;2023-07-08T04:39:48;93988.16;;;24.01;44.03
48035;BME280;33812;46.480;6.834;2023-07-08T04:43:49;93999.28;;;24.01;43.80
48035;BME280;33812;46.480;6.834;2023-07-08T04:47:53;93982.63;;;24.01;44.44
48035;BME280;33812;46.480;6.834;2023-07-08T04:51:55;93986.19;;;24.01;44.27
48035;BME280;33812;46.480;6.834;2023-07-08T04:55:58;93971.50;;;24.01;44.32
48035;BME280;33812;46.480;6.834;2023-07-08T05:00:00;93986.63;;;24.00;44.89
48035;BME280;33812;46.480;6.834;2023-07-08T05:04:04;93973.53;;;24.00;44.28
48035;BME280;33812;46.480;6.834;2023-07-08T05:08:07;93968.75;;;24.01;44.81
48035;BME280;33812;46.480;6.834;2023-07-08T05:12:10;93988.16;;;24.01;45.92
48035;BME280;33812;46.480;6.834;2023-07-08T05:16:12;93994.50;;;24.01;45.25
48035;BME280;33812;46.480;6.834;2023-07-08T05:20:15;93990.66;;;23.99;46.07
48035;BME280;33812;46.480;6.834;2023-07-08T05:24:18;93992.19;;;24.00;45.60
48035;BME280;33812;46.480;6.834;2023-07-08T05:28:22;93992.19;;;24.00;45.96
48035;BME280;33812;46.480;6.834;2023-07-08T05:32:25;94002.06;;;24.01;45.83
48035;BME280;33812;46.480;6.834;2023-07-08T05:36:27;94014.72;;;24.02;46.08
48035;BME280;33812;46.480;6.834;2023-07-08T05:40:29;94012.56;;;23.84;47.02
48035;BME280;33812;46.480;6.834;2023-07-08T05:44:36;94023.88;;;23.89;47.31
48035;BME280;33812;46.480;6.834;2023-07-08T05:48:43;94026.53;;;23.93;46.68
48035;BME280;33812;46.480;6.834;2023-07-08T05:52:45;94023.31;;;23.95;46.50
48035;BME280;33812;46.480;6.834;2023-07-08T05:56:49;94037.44;;;23.87;46.42
48035;BME280;33812;46.480;6.834;2023-07-08T06:00:56;94027.44;;;23.90;46.37
48035;BME280;33812;46.480;6.834;2023-07-08T06:04:58;94034.06;;;23.93;45.99
48035;BME280;33812;46.480;6.834;2023-07-08T06:09:00;94029.63;;;23.95;46.21
48035;BME280;33812;46.480;6.834;2023-07-08T06:13:03;94027.63;;;23.96;46.11
48035;BME280;33812;46.480;6.834;2023-07-08T06:17:07;94028.84;;;23.95;46.10
48035;BME280;33812;46.480;6.834;2023-07-08T06:21:08;94032.41;;;23.95;46.05
48035;BME280;33812;46.480;6.834;2023-07-08T06:25:10;94040.84;;;23.91;45.55
48035;BME280;33812;46.480;6.834;2023-07-08T06:29:12;94053.50;;;23.93;45.70
48035;BME280;33812;46.480;6.834;2023-07-08T06:33:16;94055.06;;;23.94;45.51
48035;BME280;33812;46.480;6.834;2023-07-08T06:37:18;94074.06;;;23.95;45.61
48035;BME280;33812;46.480;6.834;2023-07-08T06:41:19;94102.91;;;23.98;45.70
48035;BME280;33812;46.480;6.834;2023-07-08T06:45:21;94101.69;;;23.99;46.07
48035;BME280;33812;46.480;6.834;2023-07-08T06:49:24;94110.47;;;23.97;45.60
48035;BME280;33812;46.480;6.834;2023-07-08T06:53:26;94082.72;;;23.97;46.32
48035;BME280;33812;46.480;6.834;2023-07-08T06:57:28;94096.59;;;23.97;46.62
48035;BME280;33812;46.480;6.834;2023-07-08T07:01:30;94107.03;;;23.93;47.65
48035;BME280;33812;46.480;6.834;2023-07-08T07:05:33;94093.94;;;23.94;48.16
48035;BME280;33812;46.480;6.834;2023-07-08T07:09:35;94078.03;;;23.94;47.52
48035;BME280;33812;46.480;6.834;2023-07-08T07:13:37;94073.59;;;23.97;47.98
48035;BME280;33812;46.480;6.834;2023-07-08T07:17:39;94066.81;;;23.98;47.76
48035;BME280;33812;46.480;6.834;2023-07-08T07:21:42;94075.91;;;23.98;48.26
48035;BME280;33812;46.480;6.834;2023-07-08T07:25:45;94085.03;;;23.99;48.11
48035;BME280;33812;46.480;6.834;2023-07-08T07:29:49;94092.56;;;23.98;47.92
48035;BME280;33812;46.480;6.834;2023-07-08T07:33:51;94097.69;;;24.00;47.82
48035;BME280;33812;46.480;6.834;2023-07-08T07:37:54;94100.91;;;23.98;47.79
48035;BME280;33812;46.480;6.834;2023-07-08T07:41:56;94108.78;;;24.00;47.80
48035;BME280;33812;46.480;6.834;2023-07-08T07:45:58;94101.22;;;24.00;47.51
48035;BME280;33812;46.480;6.834;2023-07-08T07:50:00;94089.00;;;23.98;47.14
48035;BME280;33812;46.480;6.834;2023-07-08T07:54:04;94093.81;;;23.97;47.25
48035;BME280;33812;46.480;6.834;2023-07-08T07:58:06;94092.38;;;23.93;47.87
48035;BME280;33812;46.480;6.834;2023-07-08T08:02:09;94102.72;;;23.92;48.13
48035;BME280;33812;46.480;6.834;2023-07-08T08:06:12;94104.38;;;23.89;48.39
48035;BME280;33812;46.480;6.834;2023-07-08T08:10:15;94102.84;;;23.88;48.49
48035;BME280;33812;46.480;6.834;2023-07-08T08:14:17;94113.16;;;23.88;49.12
48035;BME280;33812;46.480;6.834;2023-07-08T08:18:19;94100.06;;;23.88;49.13
48035;BME280;33812;46.480;6.834;2023-07-08T08:22:21;94089.41;;;23.87;49.03
48035;BME280;33812;46.480;6.834;2023-07-08T08:26:28;94096.94;;;23.86;49.05
48035;BME280;33812;46.480;6.834;2023-07-08T08:30:31;94104.03;;;23.87;49.41
48035;BME280;33812;46.480;6.834;2023-07-08T08:34:33;94100.06;;;23.88;48.88
48035;BME280;33812;46.480;6.834;2023-07-08T08:38:35;94091.72;;;23.88;48.75
48035;BME280;33812;46.480;6.834;2023-07-08T08:42:46;94092.03;;;23.90;48.44
48035;BME280;33812;46.480;6.834;2023-07-08T08:46:58;94102.72;;;23.92;48.14
48035;BME280;33812;46.480;6.834;2023-07-08T08:51:07;94110.59;;;23.94;48.22
48035;BME280;33812;46.480;6.834;2023-07-08T08:55:13;94111.34;;;23.94;48.62
48035;BME280;33812;46.480;6.834;2023-07-08T08:59:28;94109.34;;;23.95;48.35
48035;BME280;33812;46.480;6.834;2023-07-08T09:03:43;94102.56;;;23.96;49.06
48035;BME280;33812;46.480;6.834;2023-07-08T09:08:00;94115.25;;;23.97;48.41
48035;BME280;33812;46.480;6.834;2023-07-08T09:12:06;94115.25;;;23.97;48.98
48035;BME280;33812;46.480;6.834;2023-07-08T09:16:18;94116.78;;;23.98;49.44
48035;BME280;33812;46.480;6.834;2023-07-08T09:20:23;94116.78;;;23.98;49.34
48035;BME280;33812;46.480;6.834;2023-07-08T09:24:33;94118.34;;;23.99;49.05
48035;BME280;33812;46.480;6.834;2023-07-08T09:28:37;94127.88;;;23.98;49.27
48035;BME280;33812;46.480;6.834;2023-07-08T09:32:43;94121.88;;;23.99;49.26
48035;BME280;33812;46.480;6.834;2023-07-08T09:36:48;94120.66;;;24.00;49.99
48035;BME280;33812;46.480;6.834;2023-07-08T09:40:52;94122.22;;;24.01;49.66
48035;BME280;33812;46.480;6.834;2023-07-08T09:45:00;94115.88;;;24.01;50.30
48035;BME280;33812;46.480;6.834;2023-07-08T09:49:28;94117.91;;;24.00;50.14
48035;BME280;33812;46.480;6.834;2023-07-08T09:53:33;94111.09;;;24.01;50.63
48035;BME280;33812;46.480;6.834;2023-07-08T09:57:35;94121.00;;;24.02;50.86
48035;BME280;33812;46.480;6.834;2023-07-08T10:01:37;94118.22;;;24.02;50.85
48035;BME280;33812;46.480;6.834;2023-07-08T10:05:43;94120.56;;;24.04;51.53
48035;BME280;33812;46.480;6.834;2023-07-08T10:09:48;94115.00;;;24.04;51.26
48035;BME280;33812;46.480;6.834;2023-07-08T10:13:56;94115.75;;;24.05;51.71
48035;BME280;33812;46.480;6.834;2023-07-08T10:17:59;94109.78;;;24.06;51.73
48035;BME280;33812;46.480;6.834;2023-07-08T10:22:17;94115.34;;;24.06;51.71
48035;BME280;33812;46.480;6.834;2023-07-08T10:26:26;94116.09;;;24.07;51.58
48035;BME280;33812;46.480;6.834;2023-07-08T10:30:32;94115.63;;;24.08;52.15
48035;BME280;33812;46.480;6.834;2023-07-08T10:34:41;94107.75;;;24.07;51.66
48035;BME280;33812;46.480;6.834;2023-07-08T10:38:59;94119.19;;;24.09;52.11
48035;BME280;33812;46.480;6.834;2023-07-08T10:47:51;94121.53;;;24.10;52.20
48035;BME280;33812;46.480;6.834;2023-07-08T10:52:05;94116.75;;;24.11;52.80
48035;BME280;33812;46.480;6.834;2023-07-08T10:56:16;94115.50;;;24.12;52.16
48035;BME280;33812;46.480;6.834;2023-07-08T11:00:28;94109.19;;;24.11;52.54
48035;BME280;33812;46.480;6.834;2023-07-08T11:04:45;94110.75;;;24.12;52.04
48035;BME280;33812;46.480;6.834;2023-07-08T11:08:55;94113.53;;;24.12;52.28
48035;BME280;33812;46.480;6.834;2023-07-08T11:13:03;94116.63;;;24.14;52.61
48035;BME280;33812;46.480;6.834;2023-07-08T11:17:11;94097.94;;;24.15;52.86
48035;BME280;33812;46.480;6.834;2023-07-08T11:21:23;94101.50;;;24.15;52.41
48035;BME280;33812;46.480;6.834;2023-07-08T11:25:27;94099.97;;;24.14;52.66
48035;BME280;33812;46.480;6.834;2023-07-08T11:29:39;94093.19;;;24.15;52.03
48035;BME280;33812;46.480;6.834;2023-07-08T11:33:44;94093.97;;;24.16;51.81
48035;BME280;33812;46.480;6.834;2023-07-08T11:37:47;94092.38;;;24.15;51.74
48035;BME280;33812;46.480;6.834;2023-07-08T11:41:52;94089.19;;;24.17;51.76
48035;BME280;33812;46.480;6.834;2023-07-08T11:45:57;94087.63;;;24.15;51.48
48035;BME280;33812;46.480;6.834;2023-07-08T11:49:59;94079.66;;;24.18;51.75
48035;BME280;33812;46.480;6.834;2023-07-08T11:58:19;94082.44;;;24.18;51.93
48035;BME280;33812;46.480;6.834;2023-07-08T12:02:23;94085.53;;;24.20;51.79
48035;BME280;33812;46.480;6.834;2023-07-08T12:06:47;94081.97;;;24.19;51.92
48035;BME280;33812;46.480;6.834;2023-07-08T12:10:52;94073.19;;;24.21;51.99
48035;BME280;33812;46.480;6.834;2023-07-08T12:15:01;94071.19;;;24.21;52.29
48035;BME280;33812;46.480;6.834;2023-07-08T12:19:11;94075.50;;;24.22;51.71
48035;BME280;33812;46.480;6.834;2023-07-08T12:23:20;94064.41;;;24.22;51.83
48035;BME280;33812;46.480;6.834;2023-07-08T12:27:22;94068.75;;;24.23;51.71
48035;BME280;33812;46.480;6.834;2023-07-08T12:31:24;94063.66;;;24.22;52.35
48035;BME280;33812;46.480;6.834;2023-07-08T12:35:29;94073.84;;;24.25;52.08
48035;BME280;33812;46.480;6.834;2023-07-08T12:39:33;94065.53;;;24.25;51.72
48035;BME280;33812;46.480;6.834;2023-07-08T12:43:35;94065.84;;;24.27;51.69
48035;BME280;33812;46.480;6.834;2023-07-08T12:47:37;94067.38;;;24.28;52.21
48035;BME280;33812;46.480;6.834;2023-07-08T12:51:43;94070.03;;;24.32;52.61
48035;BME280;33812;46.480;6.834;2023-07-08T12:55:47;94068.16;;;24.29;52.04
48035;BME280;33812;46.480;6.834;2023-07-08T12:59:52;94072.03;;;24.31;53.54
48035;BME280;33812;46.480;6.834;2023-07-08T13:03:56;94066.47;;;24.31;52.64
48035;BME280;33812;46.480;6.834;2023-07-08T13:08:01;94068.78;;;24.33;53.10
48035;BME280;33812;46.480;6.834;2023-07-08T13:12:13;94068.03;;;24.32;53.29
48035;BME280;33812;46.480;6.834;2023-07-08T13:16:16;94069.91;;;24.35;53.41
48035;BME280;33812;46.480;6.834;2023-07-08T13:20:20;94066.34;;;24.35;53.38
48035;BME280;33812;46.480;6.834;2023-07-08T13:24:24;94074.22;;;24.36;54.48
48035;BME280;33812;46.480;6.834;2023-07-08T13:28:27;94068.22;;;24.38;54.27
48035;BME280;33812;46.480;6.834;2023-07-08T13:32:30;94066.69;;;24.37;53.79
48035;BME280;33812;46.480;6.834;2023-07-08T13:36:35;94063.25;;;24.33;53.61
48035;BME280;33812;46.480;6.834;2023-07-08T13:40:42;94067.13;;;24.35;53.34
48035;BME280;33812;46.480;6.834;2023-07-08T13:44:46;94059.59;;;24.36;53.15
48035;BME280;33812;46.480;6.834;2023-07-08T13:48:49;94065.13;;;24.36;52.90
48035;BME280;33812;46.480;6.834;2023-07-08T13:52:53;94060.34;;;24.36;53.42
48035;BME280;33812;46.480;6.834;2023-07-08T13:56:56;94057.56;;;24.36;52.68
48035;BME280;33812;46.480;6.834;2023-07-08T14:01:01;94058.34;;;24.37;52.77
48035;BME280;33812;46.480;6.834;2023-07-08T14:05:05;94067.47;;;24.37;52.68
48035;BME280;33812;46.480;6.834;2023-07-08T14:09:13;94071.78;;;24.38;52.65
48035;BME280;33812;46.480;6.834;2023-07-08T14:13:16;94060.66;;;24.38;52.39
48035;BME280;33812;46.480;6.834;2023-07-08T14:17:20;94057.44;;;24.40;52.73
48035;BME280;33812;46.480;6.834;2023-07-08T14:21:23;94052.34;;;24.38;52.27
48035;BME280;33812;46.480;6.834;2023-07-08T14:25:24;94059.44;;;24.39;52.32
48035;BME280;33812;46.480;6.834;2023-07-08T14:29:28;94061.78;;;24.41;52.44
48035;BME280;33812;46.480;6.834;2023-07-08T14:33:30;94060.22;;;24.40;52.21
48035;BME280;33812;46.480;6.834;2023-07-08T14:37:31;94056.97;;;24.42;52.46
48035;BME280;33812;46.480;6.834;2023-07-08T14:41:33;94051.88;;;24.40;52.00
48035;BME280;33812;46.480;6.834;2023-07-08T14:45:40;94056.97;;;24.42;52.42
48035;BME280;33812;46.480;6.834;2023-07-08T14:49:45;94064.09;;;24.43;52.42
48035;BME280;33812;46.480;6.834;2023-07-08T14:53:47;94066.88;;;24.43;52.01
48035;BME280;33812;46.480;6.834;2023-07-08T14:57:48;94062.06;;;24.43;51.86
48035;BME280;33812;46.480;6.834;2023-07-08T15:01:52;94055.75;;;24.43;51.84
48035;BME280;33812;46.480;6.834;2023-07-08T15:05:55;94051.75;;;24.44;52.19
48035;BME280;33812;46.480;6.834;2023-07-08T15:09:57;94047.72;;;24.45;52.18
48035;BME280;33812;46.480;6.834;2023-07-08T15:13:59;94054.53;;;24.44;52.11
48035;BME280;33812;46.480;6.834;2023-07-08T15:18:09;94055.31;;;24.44;51.82
48035;BME280;33812;46.480;6.834;2023-07-08T15:22:11;94053.28;;;24.45;51.63
48035;BME280;33812;46.480;6.834;2023-07-08T15:26:13;94041.41;;;24.44;51.55
48035;BME280;33812;46.480;6.834;2023-07-08T15:30:18;94052.06;;;24.46;51.47
48035;BME280;33812;46.480;6.834;2023-07-08T15:34:22;94040.19;;;24.45;51.84
48035;BME280;33812;46.480;6.834;2023-07-08T15:38:24;94042.97;;;24.45;51.90
48035;BME280;33812;46.480;6.834;2023-07-08T15:42:26;94033.41;;;24.46;51.37
48035;BME280;33812;46.480;6.834;2023-07-08T15:46:30;94032.94;;;24.48;51.38
48035;BME280;33812;46.480;6.834;2023-07-08T15:50:35;94039.72;;;24.47;51.74
48035;BME280;33812;46.480;6.834;2023-07-08T15:54:38;94021.84;;;24.48;51.30
48035;BME280;33812;46.480;6.834;2023-07-08T15:58:41;94028.94;;;24.49;51.71
48035;BME280;33812;46.480;6.834;2023-07-08T16:02:43;94028.16;;;24.48;51.36
48035;BME280;33812;46.480;6.834;2023-07-08T16:06:46;94027.69;;;24.50;51.22
48035;BME280;33812;46.480;6.834;2023-07-08T16:10:51;94024.16;;;24.49;51.46
48035;BME280;33812;46.480;6.834;2023-07-08T16:14:53;94027.69;;;24.50;51.30
48035;BME280;33812;46.480;6.834;2023-07-08T16:18:55;94024.91;;;24.50;51.27
48035;BME280;33812;46.480;6.834;2023-07-08T16:22:58;94013.38;;;24.51;51.42
48035;BME280;33812;46.480;6.834;2023-07-08T16:27:00;94019.69;;;24.52;51.37
48035;BME280;33812;46.480;6.834;2023-07-08T16:31:03;94011.69;;;24.54;51.62
48035;BME280;33812;46.480;6.834;2023-07-08T16:35:07;94017.22;;;24.54;51.91
48035;BME280;33812;46.480;6.834;2023-07-08T16:39:10;94008.44;;;24.56;52.38
48035;BME280;33812;46.480;6.834;2023-07-08T16:43:20;94016.03;;;24.55;51.85
48035;BME280;33812;46.480;6.834;2023-07-08T16:47:24;94007.97;;;24.57;52.11
48035;BME280;33812;46.480;6.834;2023-07-08T16:51:27;94007.97;;;24.57;52.14
48035;BME280;33812;46.480;6.834;2023-07-08T16:55:31;94010.31;;;24.59;53.18
48035;BME280;33812;46.480;6.834;2023-07-08T16:59:33;94022.19;;;24.59;52.97
48035;BME280;33812;46.480;6.834;2023-07-08T17:03:35;94015.44;;;24.60;52.95
48035;BME280;33812;46.480;6.834;2023-07-08T17:07:36;94020.97;;;24.60;52.82
48035;BME280;33812;46.480;6.834;2023-07-08T17:11:40;94016.19;;;24.61;52.10
48035;BME280;33812;46.480;6.834;2023-07-08T17:15:42;94017.75;;;24.62;51.88
48035;BME280;33812;46.480;6.834;2023-07-08T17:19:43;94015.72;;;24.62;52.46
48035;BME280;33812;46.480;6.834;2023-07-08T17:23:45;94015.72;;;24.62;52.62
48035;BME280;33812;46.480;6.834;2023-07-08T17:27:51;94020.06;;;24.63;52.87
48035;BME280;33812;46.480;6.834;2023-07-08T17:31:54;94020.81;;;24.64;53.26
48035;BME280;33812;46.480;6.834;2023-07-08T17:35:56;94024.38;;;24.65;52.93
48035;BME280;33812;46.480;6.834;2023-07-08T17:39:58;94023.94;;;24.66;52.72
48035;BME280;33812;46.480;6.834;2023-07-08T17:44:01;94028.72;;;24.66;52.89
48035;BME280;33812;46.480;6.834;2023-07-08T17:48:03;94022.38;;;24.65;52.94
48035;BME280;33812;46.480;6.834;2023-07-08T17:52:08;94028.72;;;24.66;52.99
48035;BME280;33812;46.480;6.834;2023-07-08T17:56:17;94031.06;;;24.67;53.16
48035;BME280;33812;46.480;6.834;2023-07-08T18:00:23;94042.16;;;24.67;53.47
48035;BME280;33812;46.480;6.834;2023-07-08T18:04:25;94034.59;;;24.68;53.20
48035;BME280;33812;46.480;6.834;2023-07-08T18:08:27;94037.38;;;24.68;53.38
48035;BME280;33812;46.480;6.834;2023-07-08T18:12:29;94030.28;;;24.67;52.91
48035;BME280;33812;46.480;6.834;2023-07-08T18:16:33;94027.03;;;24.68;53.10
48035;BME280;33812;46.480;6.834;2023-07-08T18:20:37;94026.25;;;24.68;53.25
48035;BME280;33812;46.480;6.834;2023-07-08T18:24:39;94020.69;;;24.68;52.45
48035;BME280;33812;46.480;6.834;2023-07-08T18:28:41;94020.69;;;24.68;52.45
48035;BME280;33812;46.480;6.834;2023-07-08T18:32:47;94027.81;;;24.69;50.93
48035;BME280;33812;46.480;6.834;2023-07-08T18:36:49;94028.72;;;24.66;47.73
48035;BME280;33812;46.480;6.834;2023-07-08T18:40:53;94033.50;;;24.65;46.55
48035;BME280;33812;46.480;6.834;2023-07-08T18:44:56;94039.53;;;24.63;45.28
48035;BME280;33812;46.480;6.834;2023-07-08T18:48:59;94043.50;;;24.62;45.13
48035;BME280;33812;46.480;6.834;2023-07-08T18:53:03;94044.28;;;24.63;44.49
48035;BME280;33812;46.480;6.834;2023-07-08T18:57:08;94050.31;;;24.61;44.32
48035;BME280;33812;46.480;6.834;2023-07-08T19:01:14;94044.28;;;24.63;44.21
48035;BME280;33812;46.480;6.834;2023-07-08T19:05:20;94054.63;;;24.62;44.42
48035;BME280;33812;46.480;6.834;2023-07-08T19:09:22;94053.09;;;24.61;44.14
48035;BME280;33812;46.480;6.834;2023-07-08T19:13:23;94053.09;;;24.61;44.38
48035;BME280;33812;46.480;6.834;2023-07-08T19:17:25;94046.75;;;24.61;44.16
48035;BME280;33812;46.480;6.834;2023-07-08T19:21:28;94057.09;;;24.60;44.20
48035;BME280;33812;46.480;6.834;2023-07-08T19:25:30;94054.34;;;24.60;45.22
48035;BME280;33812;46.480;6.834;2023-07-08T19:29:32;94052.75;;;24.59;44.63
48035;BME280;33812;46.480;6.834;2023-07-08T19:33:36;94052.75;;;24.59;44.95
48035;BME280;33812;46.480;6.834;2023-07-08T19:37:40;94061.56;;;24.58;44.73
48035;BME280;33812;46.480;6.834;2023-07-08T19:41:41;94066.03;;;24.55;45.09
48035;BME280;33812;46.480;6.834;2023-07-08T19:45:43;94074.38;;;24.55;44.58
48035;BME280;33812;46.480;6.834;2023-07-08T19:54:11;94079.94;;;24.55;44.11
48035;BME280;33812;46.480;6.834;2023-07-08T19:58:19;94092.56;;;24.56;44.38
48035;BME280;33812;46.480;6.834;2023-07-08T20:02:22;94100.59;;;24.54;44.64
48035;BME280;33812;46.480;6.834;2023-07-08T20:06:26;94094.25;;;24.54;43.79
48035;BME280;33812;46.480;6.834;2023-07-08T20:10:30;94103.38;;;24.54;43.61
48035;BME280;33812;46.480;6.834;2023-07-08T20:14:34;94120.81;;;24.55;43.81
48035;BME280;33812;46.480;6.834;2023-07-08T20:18:35;94111.69;;;24.54;43.13
48035;BME280;33812;46.480;6.834;2023-07-08T20:22:37;94126.03;;;24.53;43.74
48035;BME280;33812;46.480;6.834;2023-07-08T20:26:42;94127.72;;;24.50;43.77
48035;BME280;33812;46.480;6.834;2023-07-08T20:30:45;94133.28;;;24.50;43.36
48035;BME280;33812;46.480;6.834;2023-07-08T20:34:46;94133.28;;;24.50;43.45
48035;BME280;33812;46.480;6.834;2023-07-08T20:38:48;94136.03;;;24.50;43.76
48035;BME280;33812;46.480;6.834;2023-07-08T21:07:46;94161.63;;;24.45;43.69
48035;BME280;33812;46.480;6.834;2023-07-08T21:11:48;94163.53;;;24.48;43.18
48035;BME280;33812;46.480;6.834;2023-07-08T21:25:08;94176.50;;;24.51;43.36
48035;BME280;33812;46.480;6.834;2023-07-08T21:29:10;94174.94;;;24.50;42.70
48035;BME280;33812;46.480;6.834;2023-07-08T21:33:13;94167.41;;;24.50;42.66
48035;BME280;33812;46.480;6.834;2023-07-08T21:37:15;94170.63;;;24.49;42.60
48035;BME280;33812;46.480;6.834;2023-07-08T21:41:18;94169.38;;;24.50;42.59
48035;BME280;33812;46.480;6.834;2023-07-08T21:52:08;94174.41;;;24.55;42.71
48035;BME280;33812;46.480;6.834;2023-07-08T22:12:23;94156.59;;;24.53;42.17
48035;BME280;33812;46.480;6.834;2023-07-08T22:16:26;94157.84;;;24.51;42.29
48035;BME280;33812;46.480;6.834;2023-07-08T22:20:29;94163.41;;;24.51;42.91
48035;BME280;33812;46.480;6.834;2023-07-08T22:24:30;94163.81;;;24.50;42.58
48035;BME280;33812;46.480;6.834;2023-07-08T22:28:34;94152.41;;;24.48;43.02
48035;BME280;33812;46.480;6.834;2023-07-08T22:32:37;94157.97;;;24.48;42.59
48035;BME280;33812;46.480;6.834;2023-07-08T22:36:39;94153.28;;;24.45;42.89
48035;BME280;33812;46.480;6.834;2023-07-08T22:40:42;94158.09;;;24.44;42.61
48035;BME280;33812;46.480;6.834;2023-07-08T22:44:45;94158.09;;;24.44;42.06
48035;BME280;33812;46.480;6.834;2023-07-08T22:48:47;94158.84;;;24.45;41.97
48035;BME280;33812;46.480;6.834;2023-07-08T22:52:50;94143.53;;;24.40;42.04
48035;BME280;33812;46.480;6.834;2023-07-08T22:56:53;94141.09;;;24.42;41.91
48035;BME280;33812;46.480;6.834;2023-07-08T23:00:56;94153.28;;;24.45;42.05
48035;BME280;33812;46.480;6.834;2023-07-08T23:04:58;94155.31;;;24.44;42.38
48035;BME280;33812;46.480;6.834;2023-07-08T23:09:00;94144.31;;;24.41;42.06
48035;BME280;33812;46.480;6.834;2023-07-08T23:13:02;94149.56;;;24.38;42.07
48035;BME280;33812;46.480;6.834;2023-07-08T23:17:10;94141.22;;;24.38;41.87
48035;BME280;33812;46.480;6.834;2023-07-08T23:21:13;94150.59;;;24.32;41.56
48035;BME280;33812;46.480;6.834;2023-07-08T23:25:17;94139.81;;;24.34;41.95
48035;BME280;33812;46.480;6.834;2023-07-08T23:29:20;94150.13;;;24.33;40.91
48035;BME280;33812;46.480;6.834;2023-07-08T23:33:25;94151.53;;;24.38;41.32
48035;BME280;33812;46.480;6.834;2023-07-08T23:37:27;94149.22;;;24.36;40.74
48035;BME280;33812;46.480;6.834;2023-07-08T23:41:30;94147.69;;;24.35;40.60
48035;BME280;33812;46.480;6.834;2023-07-08T23:45:32;94154.31;;;24.38;40.38
48035;BME280;33812;46.480;6.834;2023-07-08T23:49:37;94153.25;;;24.35;40.17
48035;BME280;33812;46.480;6.834;2023-07-08T23:53:46;94157.56;;;24.36;39.31
48035;BME280;33812;46.480;6.834;2023-07-08T23:57:48;94146.13;;;24.34;38.54
